sensor_id;sensor_type;location;lat;lon;timestamp;pressure;altitude;pressure_sealevel;temperature;humidity
35716;BME280;21840;44.920;8.616;2023-01-31T00:00:01;100618.72;;;6.31;49.63
35716;BME280;21840;44.920;8.616;2023-01-31T00:02:26;100617.00;;;6.44;49.37
35716;BME280;21840;44.920;8.616;2023-01-31T00:04:52;100629.84;;;6.20;49.77
35716;BME280;21840;44.920;8.616;2023-01-31T00:07:17;100628.75;;;6.37;49.62
35716;BME280;21840;44.920;8.616;2023-01-31T00:09:43;100622.28;;;6.03;49.69
35716;BME280;21840;44.920;8.616;2023-01-31T00:12:08;100623.59;;;6.23;49.68
35716;BME280;21840;44.920;8.616;2023-01-31T00:14:34;100632.91;;;6.27;49.30
35716;BME280;21840;44.920;8.616;2023-01-31T00:16:59;100636.03;;;6.19;49.23
35716;BME280;21840;44.920;8.616;2023-01-31T00:19:24;100627.56;;;6.29;48.89
35716;BME280;21840;44.920;8.616;2023-01-31T00:21:50;100635.59;;;6.25;49.01
35716;BME280;21840;44.920;8.616;2023-01-31T00:24:17;100638.22;;;6.25;49.42
35716;BME280;21840;44.920;8.616;2023-01-31T00:26:42;100639.06;;;6.39;48.91
35716;BME280;21840;44.920;8.616;2023-01-31T00:29:08;100645.44;;;6.35;48.81
35716;BME280;21840;44.920;8.616;2023-01-31T00:31:35;100650.28;;;5.72;49.71
35716;BME280;21840;44.920;8.616;2023-01-31T00:34:01;100649.88;;;5.78;49.97
35716;BME280;21840;44.920;8.616;2023-01-31T00:36:31;100658.63;;;5.92;49.59
35716;BME280;21840;44.920;8.616;2023-01-31T00:38:58;100655.34;;;5.88;49.80
35716;BME280;21840;44.920;8.616;2023-01-31T00:41:25;100664.09;;;6.01;49.31
35716;BME280;21840;44.920;8.616;2023-01-31T00:43:51;100674.94;;;5.95;49.10
35716;BME280;21840;44.920;8.616;2023-01-31T00:46:17;100677.63;;;5.79;49.77
35716;BME280;21840;44.920;8.616;2023-01-31T00:48:45;100686.34;;;6.07;49.58
35716;BME280;21840;44.920;8.616;2023-01-31T00:51:10;100686.72;;;6.01;49.50
35716;BME280;21840;44.920;8.616;2023-01-31T00:53:36;100704.66;;;6.20;48.59
35716;BME280;21840;44.920;8.616;2023-01-31T00:56:05;100701.88;;;6.36;48.33
35716;BME280;21840;44.920;8.616;2023-01-31T00:58:31;100709.06;;;5.91;48.56
35716;BME280;21840;44.920;8.616;2023-01-31T01:01:25;100710.41;;;6.25;48.46
35716;BME280;21840;44.920;8.616;2023-01-31T01:03:50;100718.75;;;6.57;47.68
35716;BME280;21840;44.920;8.616;2023-01-31T01:06:17;100716.38;;;6.27;48.70
35716;BME280;21840;44.920;8.616;2023-01-31T01:08:43;100730.00;;;6.45;48.37
35716;BME280;21840;44.920;8.616;2023-01-31T01:11:12;100738.72;;;6.71;47.67
35716;BME280;21840;44.920;8.616;2023-01-31T01:13:39;100745.38;;;6.35;47.51
35716;BME280;21840;44.920;8.616;2023-01-31T01:16:07;100746.97;;;6.65;48.07
35716;BME280;21840;44.920;8.616;2023-01-31T01:18:33;100753.22;;;6.62;47.56
35716;BME280;21840;44.920;8.616;2023-01-31T01:21:07;100760.09;;;6.36;47.79
35716;BME280;21840;44.920;8.616;2023-01-31T01:23:35;100772.63;;;6.44;48.01
35716;BME280;21840;44.920;8.616;2023-01-31T01:26:01;100769.97;;;6.31;48.50
35716;BME280;21840;44.920;8.616;2023-01-31T01:28:27;100772.31;;;6.36;48.05
35716;BME280;21840;44.920;8.616;2023-01-31T01:30:52;100765.03;;;5.99;49.11
35716;BME280;21840;44.920;8.616;2023-01-31T01:33:17;100766.16;;;6.37;48.36
35716;BME280;21840;44.920;8.616;2023-01-31T01:35:43;100788.91;;;6.62;47.89
35716;BME280;21840;44.920;8.616;2023-01-31T01:38:08;100795.84;;;6.76;47.12
35716;BME280;21840;44.920;8.616;2023-01-31T01:40:37;100810.03;;;6.30;48.14
35716;BME280;21840;44.920;8.616;2023-01-31T01:43:03;100815.31;;;6.43;48.08
35716;BME280;21840;44.920;8.616;2023-01-31T01:45:29;100814.38;;;6.44;48.30
35716;BME280;21840;44.920;8.616;2023-01-31T01:47:58;100816.00;;;6.32;48.34
35716;BME280;21840;44.920;8.616;2023-01-31T01:50:29;100810.00;;;6.03;49.94
35716;BME280;21840;44.920;8.616;2023-01-31T01:55:52;100828.22;;;6.17;49.65
35716;BME280;21840;44.920;8.616;2023-01-31T01:58:23;100826.53;;;6.31;49.21
35716;BME280;21840;44.920;8.616;2023-01-31T02:00:52;100818.19;;;5.97;50.25
35716;BME280;21840;44.920;8.616;2023-01-31T02:03:18;100826.88;;;6.39;49.35
35716;BME280;21840;44.920;8.616;2023-01-31T02:05:47;100835.34;;;6.57;48.51
35716;BME280;21840;44.920;8.616;2023-01-31T02:08:17;100844.97;;;6.42;49.02
35716;BME280;21840;44.920;8.616;2023-01-31T02:11:12;100839.16;;;6.51;49.10
35716;BME280;21840;44.920;8.616;2023-01-31T02:13:40;100836.19;;;6.43;48.87
35716;BME280;21840;44.920;8.616;2023-01-31T02:16:12;100841.19;;;6.04;50.15
35716;BME280;21840;44.920;8.616;2023-01-31T02:18:39;100837.00;;;6.02;50.03
35716;BME280;21840;44.920;8.616;2023-01-31T02:35:47;100870.66;;;5.62;50.49
35716;BME280;21840;44.920;8.616;2023-01-31T02:41:19;100871.66;;;5.59;49.85
35716;BME280;21840;44.920;8.616;2023-01-31T02:44:00;100866.72;;;5.25;50.14
35716;BME280;21840;44.920;8.616;2023-01-31T02:46:52;100870.63;;;5.02;50.81
35716;BME280;21840;44.920;8.616;2023-01-31T02:54:47;100866.69;;;5.40;49.24
35716;BME280;21840;44.920;8.616;2023-01-31T02:57:33;100861.06;;;5.02;50.45
35716;BME280;21840;44.920;8.616;2023-01-31T03:00:00;100868.63;;;5.07;49.98
35716;BME280;21840;44.920;8.616;2023-01-31T03:02:26;100877.28;;;4.91;49.95
35716;BME280;21840;44.920;8.616;2023-01-31T03:04:52;100877.03;;;4.80;50.61
35716;BME280;21840;44.920;8.616;2023-01-31T03:07:23;100884.25;;;5.07;49.53
35716;BME280;21840;44.920;8.616;2023-01-31T03:10:31;100890.44;;;5.20;49.50
35716;BME280;21840;44.920;8.616;2023-01-31T03:13:51;100895.13;;;5.29;49.29
35716;BME280;21840;44.920;8.616;2023-01-31T03:16:25;100899.47;;;5.29;48.79
35716;BME280;21840;44.920;8.616;2023-01-31T03:19:27;100903.50;;;5.34;49.31
35716;BME280;21840;44.920;8.616;2023-01-31T03:22:04;100912.41;;;5.30;49.13
35716;BME280;21840;44.920;8.616;2023-01-31T03:24:32;100910.38;;;5.35;49.10
35716;BME280;21840;44.920;8.616;2023-01-31T03:26:59;100909.91;;;5.13;49.75
35716;BME280;21840;44.920;8.616;2023-01-31T03:29:28;100904.97;;;5.08;50.31
35716;BME280;21840;44.920;8.616;2023-01-31T03:32:07;100917.81;;;5.11;49.38
35716;BME280;21840;44.920;8.616;2023-01-31T03:34:36;100923.75;;;5.29;49.47
35716;BME280;21840;44.920;8.616;2023-01-31T03:37:11;100921.13;;;4.67;50.91
35716;BME280;21840;44.920;8.616;2023-01-31T03:42:27;100933.59;;;5.08;50.10
35716;BME280;21840;44.920;8.616;2023-01-31T03:44:57;100937.97;;;4.44;51.24
35716;BME280;21840;44.920;8.616;2023-01-31T03:47:36;100936.97;;;4.79;50.52
35716;BME280;21840;44.920;8.616;2023-01-31T03:50:11;100934.19;;;4.97;50.16
35716;BME280;21840;44.920;8.616;2023-01-31T03:52:43;100946.09;;;4.54;51.25
35716;BME280;21840;44.920;8.616;2023-01-31T03:55:20;100939.72;;;4.91;50.52
35716;BME280;21840;44.920;8.616;2023-01-31T03:57:51;100928.22;;;5.11;49.96
35716;BME280;21840;44.920;8.616;2023-01-31T04:00:20;100938.00;;;4.92;50.48
35716;BME280;21840;44.920;8.616;2023-01-31T04:03:00;100932.19;;;5.03;50.58
35716;BME280;21840;44.920;8.616;2023-01-31T04:05:28;100941.81;;;4.69;50.65
35716;BME280;21840;44.920;8.616;2023-01-31T04:07:59;100940.63;;;4.59;51.69
35716;BME280;21840;44.920;8.616;2023-01-31T04:10:27;100935.19;;;4.63;50.83
35716;BME280;21840;44.920;8.616;2023-01-31T04:12:53;100941.00;;;4.68;51.11
35716;BME280;21840;44.920;8.616;2023-01-31T04:15:18;100934.91;;;4.36;52.16
35716;BME280;21840;44.920;8.616;2023-01-31T04:17:44;100933.88;;;4.88;51.01
35716;BME280;21840;44.920;8.616;2023-01-31T04:20:10;100941.19;;;4.97;50.66
35716;BME280;21840;44.920;8.616;2023-01-31T04:22:37;100936.63;;;4.53;51.32
35716;BME280;21840;44.920;8.616;2023-01-31T04:25:04;100940.16;;;4.68;51.42
35716;BME280;21840;44.920;8.616;2023-01-31T04:27:30;100940.56;;;4.76;51.19
35716;BME280;21840;44.920;8.616;2023-01-31T04:29:55;100940.84;;;4.87;51.40
35716;BME280;21840;44.920;8.616;2023-01-31T04:32:21;100943.84;;;4.95;50.75
35716;BME280;21840;44.920;8.616;2023-01-31T04:34:46;100940.09;;;4.69;51.99
35716;BME280;21840;44.920;8.616;2023-01-31T04:37:12;100947.19;;;4.66;51.51
35716;BME280;21840;44.920;8.616;2023-01-31T04:39:37;100957.81;;;4.94;51.31
35716;BME280;21840;44.920;8.616;2023-01-31T04:42:03;100957.88;;;4.77;51.12
35716;BME280;21840;44.920;8.616;2023-01-31T04:44:28;100967.44;;;4.27;51.88
35716;BME280;21840;44.920;8.616;2023-01-31T04:46:53;100960.34;;;4.47;51.36
35716;BME280;21840;44.920;8.616;2023-01-31T04:49:19;100955.06;;;4.48;51.00
35716;BME280;21840;44.920;8.616;2023-01-31T04:51:44;100950.03;;;4.45;51.07
35716;BME280;21840;44.920;8.616;2023-01-31T04:54:10;100950.25;;;4.25;51.38
35716;BME280;21840;44.920;8.616;2023-01-31T04:56:35;100948.91;;;4.33;50.99
35716;BME280;21840;44.920;8.616;2023-01-31T04:59:01;100961.69;;;4.21;51.46
35716;BME280;21840;44.920;8.616;2023-01-31T05:01:26;100962.44;;;4.07;51.43
35716;BME280;21840;44.920;8.616;2023-01-31T05:03:52;100953.19;;;3.84;52.00
35716;BME280;21840;44.920;8.616;2023-01-31T05:06:18;100961.44;;;3.92;52.59
35716;BME280;21840;44.920;8.616;2023-01-31T05:08:43;100962.31;;;4.26;51.97
35716;BME280;21840;44.920;8.616;2023-01-31T05:11:09;100964.88;;;4.43;51.42
35716;BME280;21840;44.920;8.616;2023-01-31T05:13:35;100969.63;;;4.35;51.60
35716;BME280;21840;44.920;8.616;2023-01-31T05:16:08;100972.84;;;4.40;51.65
35716;BME280;21840;44.920;8.616;2023-01-31T05:18:35;100974.50;;;3.91;52.37
35716;BME280;21840;44.920;8.616;2023-01-31T05:21:01;100978.84;;;4.25;52.06
35716;BME280;21840;44.920;8.616;2023-01-31T05:23:27;100995.81;;;4.32;51.99
35716;BME280;21840;44.920;8.616;2023-01-31T05:25:53;100992.56;;;4.44;51.06
35716;BME280;21840;44.920;8.616;2023-01-31T05:28:18;100998.56;;;4.11;52.03
35716;BME280;21840;44.920;8.616;2023-01-31T05:30:44;101000.25;;;3.78;52.67
35716;BME280;21840;44.920;8.616;2023-01-31T05:33:09;100999.25;;;3.80;52.63
35716;BME280;21840;44.920;8.616;2023-01-31T05:35:35;101003.75;;;3.77;52.32
35716;BME280;21840;44.920;8.616;2023-01-31T05:38:03;101007.81;;;3.82;52.61
35716;BME280;21840;44.920;8.616;2023-01-31T05:40:28;101004.63;;;3.95;52.10
35716;BME280;21840;44.920;8.616;2023-01-31T05:42:56;101007.94;;;3.44;53.04
35716;BME280;21840;44.920;8.616;2023-01-31T05:45:22;101010.19;;;3.33;53.38
35716;BME280;21840;44.920;8.616;2023-01-31T05:47:48;101006.78;;;3.50;53.17
35716;BME280;21840;44.920;8.616;2023-01-31T05:50:15;101008.69;;;3.46;52.81
35716;BME280;21840;44.920;8.616;2023-01-31T05:52:40;101012.47;;;3.39;52.73
35716;BME280;21840;44.920;8.616;2023-01-31T05:55:06;101011.53;;;3.77;52.69
35716;BME280;21840;44.920;8.616;2023-01-31T05:57:31;101009.13;;;4.08;51.55
35716;BME280;21840;44.920;8.616;2023-01-31T05:59:57;101022.25;;;3.88;52.06
35716;BME280;21840;44.920;8.616;2023-01-31T06:02:22;101030.00;;;4.07;51.56
35716;BME280;21840;44.920;8.616;2023-01-31T06:04:48;101041.53;;;3.48;53.20
35716;BME280;21840;44.920;8.616;2023-01-31T06:07:14;101051.31;;;3.96;51.89
35716;BME280;21840;44.920;8.616;2023-01-31T06:09:39;101049.16;;;3.51;52.43
35716;BME280;21840;44.920;8.616;2023-01-31T06:12:11;101049.56;;;3.60;52.50
35716;BME280;21840;44.920;8.616;2023-01-31T06:14:37;101050.78;;;3.89;51.70
35716;BME280;21840;44.920;8.616;2023-01-31T06:17:02;101060.53;;;4.02;51.56
35716;BME280;21840;44.920;8.616;2023-01-31T06:19:28;101058.94;;;4.17;51.24
35716;BME280;21840;44.920;8.616;2023-01-31T06:21:53;101066.84;;;4.15;51.68
35716;BME280;21840;44.920;8.616;2023-01-31T06:24:19;101065.53;;;4.24;50.81
35716;BME280;21840;44.920;8.616;2023-01-31T06:26:45;101068.44;;;4.00;51.58
35716;BME280;21840;44.920;8.616;2023-01-31T06:29:11;101082.19;;;4.02;51.61
35716;BME280;21840;44.920;8.616;2023-01-31T06:31:36;101092.69;;;3.82;51.63
35716;BME280;21840;44.920;8.616;2023-01-31T06:34:02;101092.53;;;3.67;52.48
35716;BME280;21840;44.920;8.616;2023-01-31T06:36:30;101091.03;;;3.98;51.52
35716;BME280;21840;44.920;8.616;2023-01-31T06:38:55;101095.34;;;3.63;52.24
35716;BME280;21840;44.920;8.616;2023-01-31T06:41:21;101097.81;;;3.83;52.00
35716;BME280;21840;44.920;8.616;2023-01-31T06:43:46;101096.78;;;3.87;51.77
35716;BME280;21840;44.920;8.616;2023-01-31T06:46:12;101102.59;;;3.93;51.95
35716;BME280;21840;44.920;8.616;2023-01-31T06:48:37;101106.94;;;3.92;51.81
35716;BME280;21840;44.920;8.616;2023-01-31T06:51:03;101099.22;;;3.91;51.86
35716;BME280;21840;44.920;8.616;2023-01-31T06:53:28;101107.28;;;3.67;52.29
35716;BME280;21840;44.920;8.616;2023-01-31T06:55:54;101114.81;;;3.91;52.48
35716;BME280;21840;44.920;8.616;2023-01-31T06:58:19;101119.84;;;3.94;51.66
35716;BME280;21840;44.920;8.616;2023-01-31T07:00:45;101113.41;;;3.83;51.84
35716;BME280;21840;44.920;8.616;2023-01-31T07:03:10;101118.03;;;3.77;52.39
35716;BME280;21840;44.920;8.616;2023-01-31T07:05:37;101122.06;;;4.01;52.18
35716;BME280;21840;44.920;8.616;2023-01-31T07:08:02;101116.00;;;4.20;51.41
35716;BME280;21840;44.920;8.616;2023-01-31T07:10:28;101120.16;;;3.87;52.14
35716;BME280;21840;44.920;8.616;2023-01-31T07:12:53;101116.63;;;4.25;52.23
35716;BME280;21840;44.920;8.616;2023-01-31T07:15:19;101127.28;;;4.01;51.92
35716;BME280;21840;44.920;8.616;2023-01-31T07:17:44;101125.03;;;4.47;51.30
35716;BME280;21840;44.920;8.616;2023-01-31T07:20:10;101131.09;;;4.11;51.34
35716;BME280;21840;44.920;8.616;2023-01-31T07:22:36;101125.88;;;3.94;51.86
35716;BME280;21840;44.920;8.616;2023-01-31T07:25:02;101135.09;;;4.19;51.56
35716;BME280;21840;44.920;8.616;2023-01-31T07:27:27;101142.91;;;4.19;50.95
35716;BME280;21840;44.920;8.616;2023-01-31T07:29:52;101144.44;;;4.23;50.50
35716;BME280;21840;44.920;8.616;2023-01-31T07:32:18;101149.34;;;4.46;50.43
35716;BME280;21840;44.920;8.616;2023-01-31T07:34:43;101156.91;;;4.33;50.96
35716;BME280;21840;44.920;8.616;2023-01-31T07:37:09;101146.44;;;4.52;50.46
35716;BME280;21840;44.920;8.616;2023-01-31T07:39:34;101152.53;;;4.34;50.93
35716;BME280;21840;44.920;8.616;2023-01-31T07:41:59;101153.31;;;4.71;49.94
35716;BME280;21840;44.920;8.616;2023-01-31T07:44:25;101159.09;;;4.93;49.99
35716;BME280;21840;44.920;8.616;2023-01-31T07:46:51;101155.91;;;4.53;50.50
35716;BME280;21840;44.920;8.616;2023-01-31T07:49:19;101152.69;;;4.66;50.12
35716;BME280;21840;44.920;8.616;2023-01-31T07:51:45;101157.00;;;4.84;49.87
35716;BME280;21840;44.920;8.616;2023-01-31T07:54:10;101166.31;;;4.71;50.43
35716;BME280;21840;44.920;8.616;2023-01-31T07:56:36;101158.84;;;4.65;50.54
35716;BME280;21840;44.920;8.616;2023-01-31T07:59:02;101165.69;;;5.01;50.06
35716;BME280;21840;44.920;8.616;2023-01-31T08:01:28;101169.38;;;4.62;50.71
35716;BME280;21840;44.920;8.616;2023-01-31T08:04:14;101170.91;;;5.16;49.46
35716;BME280;21840;44.920;8.616;2023-01-31T08:06:40;101180.34;;;5.19;49.59
35716;BME280;21840;44.920;8.616;2023-01-31T08:09:06;101187.38;;;5.34;49.62
35716;BME280;21840;44.920;8.616;2023-01-31T08:11:32;101184.31;;;5.26;49.61
35716;BME280;21840;44.920;8.616;2023-01-31T08:13:57;101186.84;;;4.77;50.97
35716;BME280;21840;44.920;8.616;2023-01-31T08:16:23;101197.06;;;4.97;50.61
35716;BME280;21840;44.920;8.616;2023-01-31T08:18:50;101203.91;;;5.33;50.25
35716;BME280;21840;44.920;8.616;2023-01-31T08:21:16;101204.63;;;5.53;49.48
35716;BME280;21840;44.920;8.616;2023-01-31T08:23:42;101212.91;;;5.44;48.69
35716;BME280;21840;44.920;8.616;2023-01-31T08:26:11;101213.50;;;5.15;50.15
35716;BME280;21840;44.920;8.616;2023-01-31T08:28:38;101213.41;;;5.34;50.10
35716;BME280;21840;44.920;8.616;2023-01-31T08:31:05;101226.22;;;5.55;48.94
35716;BME280;21840;44.920;8.616;2023-01-31T08:33:30;101224.69;;;5.51;49.37
35716;BME280;21840;44.920;8.616;2023-01-31T08:35:56;101234.16;;;5.36;49.68
35716;BME280;21840;44.920;8.616;2023-01-31T08:38:22;101237.78;;;5.82;48.66
35716;BME280;21840;44.920;8.616;2023-01-31T08:40:47;101239.84;;;6.09;48.58
35716;BME280;21840;44.920;8.616;2023-01-31T08:43:14;101238.38;;;5.88;49.07
35716;BME280;21840;44.920;8.616;2023-01-31T08:45:40;101240.47;;;6.29;47.72
35716;BME280;21840;44.920;8.616;2023-01-31T08:48:05;101242.41;;;6.57;47.53
35716;BME280;21840;44.920;8.616;2023-01-31T08:50:31;101239.16;;;6.37;47.93
35716;BME280;21840;44.920;8.616;2023-01-31T08:53:02;101248.22;;;6.46;48.76
35716;BME280;21840;44.920;8.616;2023-01-31T08:55:30;101246.81;;;6.24;48.48
35716;BME280;21840;44.920;8.616;2023-01-31T08:57:56;101250.22;;;6.41;48.19
35716;BME280;21840;44.920;8.616;2023-01-31T09:00:21;101246.16;;;6.67;47.80
35716;BME280;21840;44.920;8.616;2023-01-31T09:02:55;101246.47;;;6.46;48.37
35716;BME280;21840;44.920;8.616;2023-01-31T09:05:21;101241.69;;;7.13;47.04
35716;BME280;21840;44.920;8.616;2023-01-31T09:07:47;101251.25;;;7.43;46.07
35716;BME280;21840;44.920;8.616;2023-01-31T09:10:12;101245.00;;;7.46;46.26
35716;BME280;21840;44.920;8.616;2023-01-31T09:12:37;101246.22;;;7.69;45.72
35716;BME280;21840;44.920;8.616;2023-01-31T09:15:03;101253.03;;;7.43;45.57
35716;BME280;21840;44.920;8.616;2023-01-31T09:17:29;101250.88;;;7.49;45.76
35716;BME280;21840;44.920;8.616;2023-01-31T09:19:55;101263.38;;;7.73;45.50
35716;BME280;21840;44.920;8.616;2023-01-31T09:22:21;101263.19;;;7.47;45.94
35716;BME280;21840;44.920;8.616;2023-01-31T09:24:47;101261.03;;;7.83;45.64
35716;BME280;21840;44.920;8.616;2023-01-31T09:27:12;101261.31;;;7.35;45.89
35716;BME280;21840;44.920;8.616;2023-01-31T09:29:38;101265.25;;;7.42;45.95
35716;BME280;21840;44.920;8.616;2023-01-31T09:32:03;101262.16;;;7.35;46.40
35716;BME280;21840;44.920;8.616;2023-01-31T09:34:29;101272.72;;;7.48;45.77
35716;BME280;21840;44.920;8.616;2023-01-31T09:36:55;101259.84;;;7.74;45.57
35716;BME280;21840;44.920;8.616;2023-01-31T09:39:23;101267.31;;;7.66;46.21
35716;BME280;21840;44.920;8.616;2023-01-31T09:42:36;101266.56;;;7.78;45.91
35716;BME280;21840;44.920;8.616;2023-01-31T09:44:39;101268.97;;;7.81;45.76
35716;BME280;21840;44.920;8.616;2023-01-31T09:47:29;101277.00;;;8.07;45.11
35716;BME280;21840;44.920;8.616;2023-01-31T09:52:24;101280.53;;;8.06;45.55
35716;BME280;21840;44.920;8.616;2023-01-31T09:54:51;101282.91;;;8.92;44.15
35716;BME280;21840;44.920;8.616;2023-01-31T09:57:39;101283.25;;;8.73;44.24
35716;BME280;21840;44.920;8.616;2023-01-31T10:00:18;101274.28;;;8.50;44.56
35716;BME280;21840;44.920;8.616;2023-01-31T10:05:42;101277.19;;;9.38;43.58
35716;BME280;21840;44.920;8.616;2023-01-31T10:11:02;101273.63;;;9.39;42.91
35716;BME280;21840;44.920;8.616;2023-01-31T10:13:36;101270.16;;;9.25;43.87
35716;BME280;21840;44.920;8.616;2023-01-31T10:18:37;101273.22;;;9.32;43.22
35716;BME280;21840;44.920;8.616;2023-01-31T10:21:08;101271.41;;;9.45;42.77
35716;BME280;21840;44.920;8.616;2023-01-31T10:23:47;101268.44;;;9.76;42.72
35716;BME280;21840;44.920;8.616;2023-01-31T10:26:31;101272.66;;;9.53;43.14
35716;BME280;21840;44.920;8.616;2023-01-31T10:29:01;101261.03;;;9.69;42.67
35716;BME280;21840;44.920;8.616;2023-01-31T10:31:49;101257.97;;;9.88;42.77
35716;BME280;21840;44.920;8.616;2023-01-31T10:34:20;101253.75;;;9.99;42.38
35716;BME280;21840;44.920;8.616;2023-01-31T10:46:58;101248.94;;;10.17;43.37
35716;BME280;21840;44.920;8.616;2023-01-31T10:49:25;101246.84;;;10.70;42.71
35716;BME280;21840;44.920;8.616;2023-01-31T10:52:17;101250.19;;;10.72;42.84
35716;BME280;21840;44.920;8.616;2023-01-31T10:57:34;101249.78;;;11.00;42.51
35716;BME280;21840;44.920;8.616;2023-01-31T10:59:59;101249.34;;;11.18;42.04
35716;BME280;21840;44.920;8.616;2023-01-31T11:02:26;101253.16;;;11.02;42.59
35716;BME280;21840;44.920;8.616;2023-01-31T11:04:57;101245.56;;;11.22;41.83
35716;BME280;21840;44.920;8.616;2023-01-31T11:07:23;101244.22;;;11.28;41.77
35716;BME280;21840;44.920;8.616;2023-01-31T11:09:52;101242.28;;;11.07;42.15
35716;BME280;21840;44.920;8.616;2023-01-31T11:12:20;101242.44;;;11.17;42.36
35716;BME280;21840;44.920;8.616;2023-01-31T11:15:15;101230.88;;;11.31;42.32
35716;BME280;21840;44.920;8.616;2023-01-31T11:17:44;101219.16;;;11.46;42.27
35716;BME280;21840;44.920;8.616;2023-01-31T11:20:34;101215.91;;;11.65;41.83
35716;BME280;21840;44.920;8.616;2023-01-31T11:23:02;101205.53;;;11.63;42.19
35716;BME280;21840;44.920;8.616;2023-01-31T11:25:30;101199.53;;;11.61;42.37
35716;BME280;21840;44.920;8.616;2023-01-31T11:27:59;101202.78;;;11.31;42.94
35716;BME280;21840;44.920;8.616;2023-01-31T11:30:30;101198.69;;;11.72;41.94
35716;BME280;21840;44.920;8.616;2023-01-31T11:32:57;101199.63;;;11.82;42.08
35716;BME280;21840;44.920;8.616;2023-01-31T11:35:26;101197.59;;;11.75;42.12
35716;BME280;21840;44.920;8.616;2023-01-31T11:37:59;101191.28;;;11.55;42.36
35716;BME280;21840;44.920;8.616;2023-01-31T11:45:42;101186.16;;;11.53;42.63
35716;BME280;21840;44.920;8.616;2023-01-31T11:48:17;101178.25;;;11.87;42.53
35716;BME280;21840;44.920;8.616;2023-01-31T11:50:45;101179.63;;;12.14;42.18
35716;BME280;21840;44.920;8.616;2023-01-31T11:55:47;101168.19;;;12.24;42.91
35716;BME280;21840;44.920;8.616;2023-01-31T11:58:28;101166.97;;;12.61;42.02
35716;BME280;21840;44.920;8.616;2023-01-31T12:01:00;101167.91;;;12.39;42.70
35716;BME280;21840;44.920;8.616;2023-01-31T12:03:27;101164.28;;;12.40;42.63
35716;BME280;21840;44.920;8.616;2023-01-31T12:06:25;101155.81;;;12.36;42.61
35716;BME280;21840;44.920;8.616;2023-01-31T12:08:54;101151.50;;;12.35;42.79
35716;BME280;21840;44.920;8.616;2023-01-31T12:13:47;101141.50;;;12.71;40.88
35716;BME280;21840;44.920;8.616;2023-01-31T12:16:13;101127.59;;;12.48;40.76
35716;BME280;21840;44.920;8.616;2023-01-31T12:18:53;101125.16;;;12.77;40.12
35716;BME280;21840;44.920;8.616;2023-01-31T12:34:59;101097.47;;;13.23;38.95
35716;BME280;21840;44.920;8.616;2023-01-31T13:05:50;101056.38;;;13.71;37.68
35716;BME280;21840;44.920;8.616;2023-01-31T13:08:20;101054.84;;;13.78;37.59
35716;BME280;21840;44.920;8.616;2023-01-31T13:11:01;101053.03;;;13.88;37.00
35716;BME280;21840;44.920;8.616;2023-01-31T13:13:38;101043.84;;;13.82;36.83
35716;BME280;21840;44.920;8.616;2023-01-31T13:16:36;101034.25;;;13.91;36.32
35716;BME280;21840;44.920;8.616;2023-01-31T13:19:05;101033.44;;;13.91;36.56
35716;BME280;21840;44.920;8.616;2023-01-31T13:21:39;101029.09;;;13.90;36.52
35716;BME280;21840;44.920;8.616;2023-01-31T13:24:13;101025.22;;;13.94;36.18
35716;BME280;21840;44.920;8.616;2023-01-31T13:26:57;101024.22;;;14.14;35.03
35716;BME280;21840;44.920;8.616;2023-01-31T13:29:46;101010.88;;;14.16;35.10
35716;BME280;21840;44.920;8.616;2023-01-31T13:32:26;101017.50;;;14.39;35.06
35716;BME280;21840;44.920;8.616;2023-01-31T13:35:08;101023.31;;;14.53;34.82
35716;BME280;21840;44.920;8.616;2023-01-31T13:37:41;101005.00;;;14.32;34.82
35716;BME280;21840;44.920;8.616;2023-01-31T13:42:45;101014.78;;;14.02;34.61
35716;BME280;21840;44.920;8.616;2023-01-31T13:45:22;101006.72;;;14.03;34.36
35716;BME280;21840;44.920;8.616;2023-01-31T13:47:53;101012.84;;;14.04;33.29
35716;BME280;21840;44.920;8.616;2023-01-31T13:50:41;101018.81;;;14.06;33.22
35716;BME280;21840;44.920;8.616;2023-01-31T13:53:26;101017.13;;;14.05;33.06
35716;BME280;21840;44.920;8.616;2023-01-31T13:55:54;101012.03;;;13.84;33.38
35716;BME280;21840;44.920;8.616;2023-01-31T13:58:23;101020.31;;;14.28;33.19
35716;BME280;21840;44.920;8.616;2023-01-31T14:00:56;101015.66;;;14.50;33.21
35716;BME280;21840;44.920;8.616;2023-01-31T14:03:26;101025.31;;;14.31;33.60
35716;BME280;21840;44.920;8.616;2023-01-31T14:05:59;101031.81;;;14.56;33.50
35716;BME280;21840;44.920;8.616;2023-01-31T14:11:00;101019.41;;;14.57;33.93
35716;BME280;21840;44.920;8.616;2023-01-31T14:15:57;101008.72;;;14.49;34.56
35716;BME280;21840;44.920;8.616;2023-01-31T14:18:42;101009.53;;;14.49;34.76
35716;BME280;21840;44.920;8.616;2023-01-31T14:24:00;101006.50;;;14.54;34.58
35716;BME280;21840;44.920;8.616;2023-01-31T14:29:14;101001.31;;;14.62;34.54
35716;BME280;21840;44.920;8.616;2023-01-31T14:31:42;101000.81;;;14.39;34.66
35716;BME280;21840;44.920;8.616;2023-01-31T14:34:21;100997.44;;;14.46;35.01
35716;BME280;21840;44.920;8.616;2023-01-31T14:44:52;101006.88;;;14.59;35.10
35716;BME280;21840;44.920;8.616;2023-01-31T14:56:48;100999.25;;;14.56;34.94
35716;BME280;21840;44.920;8.616;2023-01-31T14:59:32;100997.31;;;14.58;35.00
35716;BME280;21840;44.920;8.616;2023-01-31T15:02:01;100999.94;;;14.58;35.06
35716;BME280;21840;44.920;8.616;2023-01-31T15:04:44;101004.13;;;14.60;34.89
35716;BME280;21840;44.920;8.616;2023-01-31T15:07:18;100995.25;;;14.32;35.19
35716;BME280;21840;44.920;8.616;2023-01-31T15:09:43;100988.13;;;14.42;35.14
35716;BME280;21840;44.920;8.616;2023-01-31T15:15:25;100995.59;;;14.66;34.94
35716;BME280;21840;44.920;8.616;2023-01-31T15:17:53;100992.16;;;14.56;35.13
35716;BME280;21840;44.920;8.616;2023-01-31T15:20:23;100993.25;;;14.63;35.12
35716;BME280;21840;44.920;8.616;2023-01-31T15:22:56;100994.84;;;14.74;34.95
35716;BME280;21840;44.920;8.616;2023-01-31T15:27:54;100991.81;;;14.69;34.72
35716;BME280;21840;44.920;8.616;2023-01-31T15:30:21;100995.19;;;14.89;34.65